Accueil
METAR-TAF:

METAR-TAF

Aéroports :

Hoorn-a, Pays-Bas

Plate-forme pétrolière

latitude: 52-55-05N, longitude: 4-09-01E, altitude: 41 m

Observation

Le bulletin a été fait il y a 36 minutes, à 20:55 UTC
Vent 14 kt de nord
Température 7°C
Humidité 66%
Pression 1016 hPa
Visibilité 10 km ou plus
Quelques nuages à une hauteur de 2600 ft

METAR: EHQE 262055Z AUTO 36014KT 9999 FEW026 07/01 Q1016

Heure: 23:31 (21:31 UTC)


TAF: absent

Observations et prévisions météorologiques de plus de 4000 aéroports (messages METAR et TAF).

Les stations disponibles sont représentées par des disques jaunes et rouges sur la carte.

Passer la souris dessus pour voir le nom de la station.

Cliquer dessus pour voir les observations et prévisions météorologiques.

Pour changer de carte: cliquez sur les boutons verts avec une croix noire pour zoomer, sur le bouton vert avec un tiret pour effectuer un zoom arrière, ou sur les flèches vertes pour les cartes adjacentes.


METAR-TAF: